createdAt,value
2022-08-28T00:00:42.041Z,24.70
2022-08-28T00:10:50.181Z,20.00
2022-08-28T00:51:39.195Z,21.00
2022-08-28T01:01:48.002Z,18.50
2022-08-28T01:11:56.893Z,22.20
2022-08-28T01:22:03.872Z,17.60
2022-08-28T01:32:11.638Z,25.70
2022-08-28T01:42:18.807Z,24.80
2022-08-28T01:52:26.651Z,24.70
2022-08-28T02:02:33.953Z,21.70
2022-08-28T02:12:41.971Z,25.90
2022-08-28T02:22:49.409Z,22.10
2022-08-28T02:32:56.980Z,24.40
2022-08-28T02:43:04.532Z,32.10
2022-08-28T02:53:11.481Z,37.80
2022-08-28T03:03:18.761Z,28.30
2022-08-28T03:13:26.972Z,28.20
2022-08-28T03:23:35.087Z,31.10
2022-08-28T03:33:43.217Z,23.00
2022-08-28T03:43:51.308Z,27.60
2022-08-28T03:53:58.974Z,28.40
2022-08-28T04:04:05.303Z,26.50
2022-08-28T04:14:12.549Z,24.20
2022-08-28T04:24:20.242Z,21.60
2022-08-28T04:34:27.515Z,24.10
2022-08-28T04:44:34.958Z,25.00
2022-08-28T04:54:42.111Z,18.40
2022-08-28T05:04:49.662Z,23.20
2022-08-28T05:14:56.768Z,27.20
2022-08-28T05:25:04.628Z,24.60
2022-08-28T05:35:12.736Z,26.50
2022-08-28T05:45:23.017Z,27.70
2022-08-28T05:55:30.696Z,25.50
2022-08-28T06:15:43.461Z,22.90
2022-08-28T06:25:52.620Z,21.40
2022-08-28T06:36:00.503Z,24.10
2022-08-28T06:46:07.998Z,23.10
2022-08-28T06:56:26.026Z,23.20
2022-08-28T07:06:32.483Z,27.90
2022-08-28T07:16:40.580Z,22.90
2022-08-28T07:26:49.157Z,24.00
2022-08-28T07:36:58.439Z,18.50
2022-08-28T07:47:18.952Z,20.80
2022-08-28T07:57:32.284Z,18.20
2022-08-28T08:07:39.751Z,15.90
2022-08-28T08:17:49.491Z,12.00
2022-08-28T08:27:56.719Z,11.40
2022-08-28T08:38:04.131Z,10.00
2022-08-28T08:48:28.223Z,12.40
2022-08-28T08:58:38.053Z,10.00
2022-08-28T09:08:50.904Z,11.80
2022-08-28T09:18:58.589Z,11.80
2022-08-28T09:29:04.246Z,10.00
2022-08-28T09:39:12.943Z,11.50
2022-08-28T09:49:24.947Z,11.90
2022-08-28T09:59:33.471Z,13.80
2022-08-28T10:19:45.496Z,12.50
2022-08-28T10:29:50.980Z,12.10
2022-08-28T10:39:55.742Z,10.40
2022-08-28T10:50:03.818Z,12.80
2022-08-28T11:00:15.487Z,11.70
2022-08-28T11:10:25.679Z,11.80
2022-08-28T11:20:31.612Z,12.20
2022-08-28T11:30:39.189Z,13.70
2022-08-28T11:40:56.838Z,13.40
2022-08-28T11:51:07.427Z,9.80
2022-08-28T12:01:27.047Z,8.90
2022-08-28T12:11:53.119Z,6.80
2022-08-28T12:22:05.509Z,7.00
2022-08-28T12:32:30.584Z,6.30
2022-08-28T12:42:41.042Z,6.20
2022-08-28T12:52:49.262Z,4.60
2022-08-28T13:02:57.073Z,6.40
2022-08-28T13:13:08.414Z,7.40
2022-08-28T13:23:29.727Z,7.60
2022-08-28T13:33:36.952Z,9.90
2022-08-28T13:43:43.830Z,6.50
2022-08-28T13:53:51.187Z,7.60
2022-08-28T14:03:59.680Z,6.30
2022-08-28T14:24:13.330Z,8.60
2022-08-28T14:34:17.836Z,10.50
2022-08-28T14:44:24.699Z,7.70
2022-08-28T14:54:31.971Z,10.00
2022-08-28T15:04:39.350Z,11.10
2022-08-28T15:14:55.015Z,9.60
2022-08-28T15:25:03.523Z,8.60
2022-08-28T15:35:12.112Z,11.50
2022-08-28T15:45:20.387Z,16.00
2022-08-28T16:05:33.569Z,16.60
2022-08-28T16:15:43.939Z,11.10
2022-08-28T16:25:48.701Z,12.40
2022-08-28T16:56:08.552Z,15.00
2022-08-28T17:06:17.160Z,10.60
2022-08-28T17:16:23.968Z,10.30
2022-08-28T17:26:31.487Z,13.20
2022-08-28T17:36:40.132Z,13.40
2022-08-28T17:46:46.622Z,16.30
2022-08-28T17:56:54.913Z,15.20
2022-08-28T18:07:02.056Z,15.00
2022-08-28T18:17:09.962Z,15.50
2022-08-28T18:37:23.797Z,17.20
2022-08-28T18:47:31.083Z,16.20
2022-08-28T18:57:38.284Z,21.60
2022-08-28T19:07:45.635Z,20.40
2022-08-28T19:17:53.342Z,13.60
2022-08-28T19:28:01.359Z,12.50
2022-08-28T19:48:14.825Z,10.70
2022-08-28T19:58:22.431Z,11.20
2022-08-28T20:08:29.195Z,12.00
2022-08-28T20:18:36.400Z,12.40
2022-08-28T20:28:44.223Z,15.80
2022-08-28T20:38:51.479Z,9.60
2022-08-28T20:48:58.642Z,9.30
2022-08-28T20:59:05.779Z,7.20
2022-08-28T21:09:13.479Z,9.30
2022-08-28T21:19:20.673Z,7.10
2022-08-28T21:29:28.096Z,6.40
2022-08-28T21:39:35.912Z,6.70
2022-08-28T21:49:43.092Z,6.30
2022-08-28T21:59:50.269Z,10.20
2022-08-28T22:09:57.818Z,5.20
2022-08-28T22:20:05.690Z,5.60
2022-08-28T22:40:20.351Z,14.80
2022-08-28T23:00:34.454Z,19.00
2022-08-28T23:10:58.663Z,15.60
2022-08-28T23:21:07.991Z,14.90
2022-08-28T23:31:15.591Z,16.90
2022-08-28T23:41:22.905Z,17.00
2022-08-28T23:51:31.292Z,16.60
